Weather at Crossville Memorial Whitson Field

Public forecast

Using degrees Fahrenheit for public forecast. Weather courtesy of forecast.io.

Current aviation weather report (METAR) for Crossville Memorial Whitson Field

Report is more than 6 hours old.

2022/11/14 14:53 (retrieved 2 years ago)

KCSV 141453Z AUTO 12006KT 10SM CLR 01/M03 A3027 RMK AO2 SLP265 T00111033 50008

Aviation forecast (TAF) for Crossville Memorial Whitson Field

Forecast is more than 12 hours old.

2023/02/22 18:22 (retrieved 1 year ago)

TAF KCSV 221720Z 2218/2318 20015G30KT P6SM BKN040 BKN250 TEMPO 2218/2220 BKN030 FM230200 20016G32KT P6SM BKN035 FM230500 21013G20KT P6SM VCSH BKN015 TEMPO 2309/2312 6SM -SHRA OVC015 FM231700 25012G19KT P6SM SCT250